Time;durP1;ratioP1;P1;durP2;ratioP2;P2;SDS_P1;SDS_P2;PMS_P1;PMS_P2;Temp;Humidity;BMP_temperature;BMP_pressure;BME280_temperature;BME280_humidity;BME280_pressure;Samples;Min_cycle;Max_cycle;Signal;HPM_P1;HPM_P2
2021/11/16 00:00:18;;;;;;;0.40;0.40;;;;;;;9.78;61.89;102709.41;5002240;28;20038;-83
2021/11/16 00:02:44;;;;;;;1.67;1.60;;;;;;;9.75;61.74;102699.69;5000378;28;20069;-82
2021/11/16 00:05:11;;;;;;;0.32;0.32;;;;;;;9.71;61.44;102701.41;4997540;28;20026;-82
2021/11/16 00:07:38;;;;;;;0.30;0.30;;;;;;;9.74;62.19;102707.59;4999618;28;20026;-82
2021/11/16 00:10:07;;;;;;;4.78;2.40;;;;;;;9.71;62.15;102704.03;5001048;28;20492;-82
2021/11/16 00:12:33;;;;;;;0.50;0.50;;;;;;;9.75;61.92;102688.22;4997576;28;20149;-83
2021/11/16 00:14:59;;;;;;;1.00;1.00;;;;;;;9.73;62.49;102696.13;4998441;28;20061;-83
2021/11/16 00:17:26;;;;;;;0.82;0.82;;;;;;;9.71;61.83;102687.28;5004683;28;20068;-84
2021/11/16 00:19:52;;;;;;;0.35;0.35;;;;;;;9.62;61.99;102680.09;5003349;28;20038;-83
2021/11/16 00:22:19;;;;;;;4.60;2.55;;;;;;;9.68;61.68;102680.19;4999589;28;20092;-83
2021/11/16 00:27:36;;;;;;;0.73;0.73;;;;;;;9.53;62.15;102680.88;5009625;28;20034;-83
2021/11/16 00:30:05;;;;;;;1.10;1.10;;;;;;;9.55;62.00;102670.31;5009550;28;20057;-84
2021/11/16 00:32:31;;;;;;;0.10;0.10;;;;;;;9.54;61.59;102673.81;5009971;28;20446;-84
2021/11/16 00:34:58;;;;;;;0.55;0.55;;;;;;;9.58;61.42;102680.91;5007905;28;20030;-84
2021/11/16 00:37:26;;;;;;;1.10;1.10;;;;;;;9.57;61.31;102672.97;5006968;28;20076;-83
2021/11/16 00:39:55;;;;;;;1.85;1.75;;;;;;;9.55;61.80;102670.31;5009671;28;20087;-84
2021/11/16 00:42:21;;;;;;;0.35;0.35;;;;;;;9.55;61.87;102665.00;5007360;28;20022;-84
2021/11/16 00:44:47;;;;;;;0.50;0.50;;;;;;;9.58;61.89;102670.34;5010917;28;20030;-84
2021/11/16 00:47:14;;;;;;;0.35;0.35;;;;;;;9.60;61.92;102671.25;5010349;28;20038;-83
2021/11/16 00:49:40;;;;;;;0.13;0.13;;;;;;;9.64;62.07;102669.53;5010373;28;20038;-84
2021/11/16 00:52:07;;;;;;;4.75;2.53;;;;;;;9.64;61.50;102662.47;5009740;28;20117;-84
2021/11/16 00:54:33;;;;;;;0.60;0.60;;;;;;;9.65;61.39;102661.59;5008969;28;20064;-84
2021/11/16 00:56:59;;;;;;;0.20;0.20;;;;;;;9.68;61.74;102656.38;5011919;28;20030;-84
2021/11/16 00:59:26;;;;;;;0.30;0.30;;;;;;;9.66;61.35;102652.81;5011786;28;20038;-83
2021/11/16 01:01:52;;;;;;;3.00;1.17;;;;;;;9.67;61.58;102658.97;5007468;28;20042;-84
2021/11/16 01:04:18;;;;;;;0.40;0.40;;;;;;;9.67;61.39;102659.88;5010915;28;20030;-84
2021/11/16 01:06:45;;;;;;;0.35;0.35;;;;;;;9.68;61.42;102666.06;5002402;28;20030;-83
2021/11/16 01:09:12;;;;;;;0.52;0.52;;;;;;;9.70;61.22;102659.91;5000660;28;20458;-84
2021/11/16 01:11:38;;;;;;;0.45;0.45;;;;;;;9.69;61.25;102658.16;4999851;28;20035;-84
2021/11/16 01:14:05;;;;;;;0.85;0.85;;;;;;;9.70;61.65;102670.50;4999803;28;20062;-83
2021/11/16 01:16:31;;;;;;;2.70;2.55;;;;;;;9.72;62.01;102667.88;4996948;28;20041;-84
2021/11/16 01:18:59;;;;;;;0.43;0.40;;;;;;;9.77;62.07;102670.56;4999020;28;20026;-84
2021/11/16 01:21:25;;;;;;;0.40;0.40;;;;;;;9.78;61.71;102667.97;5001247;28;20503;-84
2021/11/16 01:23:52;;;;;;;0.82;0.82;;;;;;;9.81;61.41;102667.13;5000372;28;20061;-84
2021/11/16 01:26:18;;;;;;;0.30;0.30;;;;;;;9.79;60.74;102658.25;5006968;28;20113;-84
2021/11/16 01:28:44;;;;;;;1.33;1.30;;;;;;;9.81;60.83;102667.13;5003996;28;20031;-84
2021/11/16 01:31:14;;;;;;;0.10;0.10;;;;;;;9.81;61.06;102656.53;5006330;28;20057;-84
2021/11/16 01:33:49;;;;;;;0.90;0.90;;;;;;;9.81;60.81;102659.19;5002585;28;20485;-84
2021/11/16 01:36:17;;;;;;;0.20;0.20;;;;;;;9.82;61.14;102658.28;5002645;28;20115;-83
2021/11/16 01:38:44;;;;;;;0.30;0.30;;;;;;;9.81;60.79;102662.69;4999739;28;20030;-83
2021/11/16 01:41:11;;;;;;;0.28;0.28;;;;;;;9.81;61.01;102651.22;5001385;28;20054;-83
2021/11/16 01:43:38;;;;;;;0.30;0.30;;;;;;;9.82;61.56;102655.63;5005369;28;20034;-84
2021/11/16 01:46:11;;;;;;;0.70;0.40;;;;;;;9.79;60.70;102648.53;5001357;28;20034;-83
2021/11/16 01:48:37;;;;;;;;;;;;;;;9.90;60.41;102651.34;5005929;28;20144;-84
2021/11/16 01:51:04;;;;;;;0.90;0.90;;;;;;;9.78;61.01;102651.19;5003395;28;19925;-84
2021/11/16 01:53:31;;;;;;;0.30;0.30;;;;;;;9.78;61.11;102640.59;5003958;28;20045;-83
2021/11/16 01:55:59;;;;;;;0.75;0.75;;;;;;;9.78;60.90;102630.91;5003151;28;20030;-84
2021/11/16 01:58:25;;;;;;;0.10;0.10;;;;;;;9.79;61.26;102637.06;5002414;28;20037;-84
2021/11/16 02:00:53;;;;;;;0.20;0.20;;;;;;;9.80;61.09;102633.56;4999103;28;20034;-84
2021/11/16 02:03:21;;;;;;;0.63;0.63;;;;;;;9.77;60.77;102636.16;4996996;28;20113;-83
2021/11/16 02:05:51;;;;;;;0.10;0.10;;;;;;;9.76;61.20;102632.63;4999004;28;20038;-84
2021/11/16 02:08:19;;;;;;;0.47;0.47;;;;;;;9.76;60.82;102629.09;5001660;28;20478;-83
2021/11/16 02:10:48;;;;;;;0.25;0.25;;;;;;;9.76;60.85;102637.03;4997886;28;20034;-83
2021/11/16 02:13:19;;;;;;;1.02;0.75;;;;;;;9.77;61.15;102634.41;4998946;28;20026;-85
2021/11/16 02:15:47;;;;;;;0.20;0.20;;;;;;;9.78;61.17;102633.56;4999517;28;20041;-83
2021/11/16 02:18:14;;;;;;;0.25;0.25;;;;;;;9.77;61.09;102634.41;5004563;28;20057;-84
2021/11/16 02:20:44;;;;;;;0.35;0.35;;;;;;;9.75;60.70;102622.03;5003509;28;20057;-84
2021/11/16 02:23:10;;;;;;;1.88;1.65;;;;;;;9.76;60.73;102622.06;5003790;28;20034;-83
2021/11/16 02:25:37;;;;;;;0.35;0.35;;;;;;;9.71;60.96;102611.41;5003863;28;20057;-84
2021/11/16 02:28:04;;;;;;;3.55;1.55;;;;;;;9.71;60.63;102619.34;5002473;28;20037;-84
2021/11/16 02:30:30;;;;;;;1.55;1.00;;;;;;;9.71;61.01;102611.41;5008933;28;20438;-83
2021/11/16 02:32:57;;;;;;;0.50;0.50;;;;;;;9.74;61.03;102612.31;5006799;28;20026;-83
2021/11/16 02:35:25;;;;;;;0.20;0.20;;;;;;;9.70;60.62;102606.97;5003892;28;20129;-84
2021/11/16 02:37:52;;;;;;;0.57;0.57;;;;;;;9.71;61.43;102613.16;5001212;28;20049;-83
2021/11/16 02:40:19;;;;;;;2.25;2.15;;;;;;;9.69;60.70;102609.59;5004349;28;20560;-83
2021/11/16 02:42:46;;;;;;;2.47;2.33;;;;;;;9.67;60.84;102601.66;5001973;28;20039;-83
2021/11/16 02:45:16;;;;;;;1.25;0.43;;;;;;;9.69;60.95;102599.94;5000123;28;20485;-83
2021/11/16 02:47:43;;;;;;;0.17;0.17;;;;;;;9.67;60.96;102604.31;5000627;28;20034;-83
2021/11/16 02:50:10;;;;;;;0.40;0.40;;;;;;;9.69;61.08;102599.03;5007863;28;20022;-83
2021/11/16 02:52:37;;;;;;;0.10;0.10;;;;;;;9.66;60.79;102599.88;5007215;28;20039;-83
2021/11/16 02:55:05;;;;;;;0.95;0.95;;;;;;;9.67;61.14;102601.66;5002357;28;20049;-83
2021/11/16 02:57:32;;;;;;;0.73;0.73;;;;;;;9.66;61.56;102610.47;5003403;28;20045;-83
2021/11/16 02:59:58;;;;;;;1.20;1.20;;;;;;;9.67;61.48;102612.25;5005259;28;20085;-83
2021/11/16 03:02:24;;;;;;;0.10;0.10;;;;;;;9.71;61.41;102611.41;4999966;28;20034;-83
2021/11/16 03:04:51;;;;;;;0.10;0.10;;;;;;;9.71;60.63;102598.16;4999530;28;20044;-83
2021/11/16 03:07:39;;;;;;;2.72;0.63;;;;;;;9.78;60.54;102603.53;5001389;28;20517;-83
2021/11/16 03:10:07;;;;;;;1.17;1.10;;;;;;;9.71;60.97;102608.75;5001221;28;20064;-82
2021/11/16 03:12:34;;;;;;;2.22;1.73;;;;;;;9.74;60.86;102607.03;5009192;28;20046;-83
2021/11/16 03:15:02;;;;;;;0.57;0.57;;;;;;;9.74;60.50;102612.31;5005379;28;20038;-80
2021/11/16 03:17:28;;;;;;;0.20;0.20;;;;;;;9.67;60.20;102613.97;5000156;28;20432;-81
2021/11/16 03:19:55;;;;;;;1.15;1.15;;;;;;;9.65;60.71;102607.81;5003327;28;20030;-82
2021/11/16 03:22:25;;;;;;;0.38;0.30;;;;;;;9.63;61.25;102610.44;4999223;28;20469;-82
2021/11/16 03:24:54;;;;;;;0.43;0.43;;;;;;;9.63;60.99;102594.56;4999336;28;20121;-83
2021/11/16 03:27:28;;;;;;;1.20;1.20;;;;;;;9.65;61.12;102592.78;5004227;28;20042;-82
2021/11/16 03:29:58;;;;;;;0.82;0.82;;;;;;;9.65;61.22;102595.44;5004047;28;20033;-82
2021/11/16 03:32:30;;;;;;;0.20;0.20;;;;;;;9.61;61.41;102596.28;5004637;28;20041;-83
2021/11/16 03:34:57;;;;;;;0.57;0.57;;;;;;;9.64;60.74;102604.25;5005850;28;20457;-82
2021/11/16 03:37:25;;;;;;;3.10;1.25;;;;;;;9.63;60.65;102596.28;5010529;28;20042;-82
2021/11/16 03:39:53;;;;;;;3.45;2.25;;;;;;;9.64;60.38;102606.03;5005357;28;20511;-82
2021/11/16 03:42:19;;;;;;;2.25;2.15;;;;;;;9.65;60.58;102607.81;5009079;28;20092;-82
2021/11/16 03:44:46;;;;;;;0.20;0.20;;;;;;;9.67;60.71;102601.66;5009000;28;20476;-82
2021/11/16 03:47:12;;;;;;;3.08;2.88;;;;;;;9.68;60.63;102603.44;5006681;28;20045;-82
2021/11/16 03:49:46;;;;;;;0.10;0.10;;;;;;;9.74;60.89;102597.31;5008648;28;20065;-81
2021/11/16 03:52:23;;;;;;;0.10;0.10;;;;;;;9.75;60.62;102603.50;5009920;28;20042;-82
2021/11/16 03:54:58;;;;;;;0.32;0.32;;;;;;;9.77;60.88;102600.00;5007540;28;20061;-82
2021/11/16 03:57:35;;;;;;;0.28;0.28;;;;;;;9.77;60.42;102607.03;5014231;28;20083;-82
2021/11/16 04:00:08;;;;;;;0.10;0.10;;;;;;;9.77;60.74;102618.53;5010788;28;20057;-82
2021/11/16 04:02:34;;;;;;;0.40;0.40;;;;;;;9.75;60.53;102620.28;5006502;28;20058;-82
2021/11/16 04:05:03;;;;;;;0.98;0.95;;;;;;;9.77;61.00;102609.69;5005782;28;20043;-82
2021/11/16 04:07:30;;;;;;;0.70;0.70;;;;;;;9.73;60.04;102613.19;5012125;28;20084;-82
2021/11/16 04:09:56;;;;;;;4.45;3.60;;;;;;;9.70;60.05;102612.25;5001680;28;20087;-82
2021/11/16 04:12:22;;;;;;;1.60;1.13;;;;;;;9.73;60.47;102614.06;5011941;28;20033;-82
2021/11/16 04:14:48;;;;;;;1.23;1.10;;;;;;;9.70;60.51;102606.09;5005147;28;20034;-82
2021/11/16 04:17:15;;;;;;;0.55;0.55;;;;;;;9.69;59.78;102604.31;5012645;28;20588;-82
2021/11/16 04:19:43;;;;;;;0.88;0.88;;;;;;;9.69;59.74;102613.16;5012651;28;20485;-82
2021/11/16 04:22:09;;;;;;;0.20;0.20;;;;;;;9.70;59.93;102609.63;5006376;28;20056;-82
2021/11/16 04:24:36;;;;;;;0.20;0.20;;;;;;;9.69;59.47;102614.91;5010888;28;20084;-82
2021/11/16 04:27:03;;;;;;;0.10;0.10;;;;;;;9.70;60.35;102612.25;5011460;28;20037;-82
2021/11/16 04:29:29;;;;;;;2.10;2.03;;;;;;;9.70;60.48;102612.25;5006171;28;20076;-82
2021/11/16 04:31:56;;;;;;;0.30;0.30;;;;;;;9.67;60.09;102613.97;5009301;28;20034;-82
2021/11/16 04:34:22;;;;;;;1.23;0.93;;;;;;;9.69;60.78;102610.50;5005295;28;20036;-82
2021/11/16 04:36:49;;;;;;;0.68;0.68;;;;;;;9.65;60.58;102613.97;5002008;28;20145;-83
2021/11/16 04:39:15;;;;;;;0.82;0.82;;;;;;;9.68;60.69;102614.03;5006262;28;20030;-82
2021/11/16 04:41:44;;;;;;;0.55;0.55;;;;;;;9.67;60.66;102614.88;4996181;28;20026;-81
2021/11/16 04:44:23;;;;;;;0.20;0.20;;;;;;;9.68;60.84;102614.03;5009882;28;20030;-81
2021/11/16 04:46:49;;;;;;;1.05;1.05;;;;;;;9.67;60.65;102612.25;5004930;28;20027;-82
2021/11/16 04:49:25;;;;;;;0.30;0.30;;;;;;;9.66;60.45;102610.47;5004938;28;20454;-83
2021/11/16 04:54:48;;;;;;;0.35;0.35;;;;;;;9.65;60.82;102600.72;5064580;27;20440;-82
2021/11/16 05:02:32;;;;;;;0.30;0.30;;;;;;;9.66;60.18;102604.28;5067766;27;20431;-82
2021/11/16 05:02:42;;;;;;;1.45;1.45;;;;;;;9.66;60.10;102599.00;5046774;28;20063;-82
2021/11/16 05:05:15;;;;;;;0.40;0.40;;;;;;;9.62;59.73;102598.06;5052486;28;20022;-82
2021/11/16 05:07:45;;;;;;;3.03;2.83;;;;;;;9.64;59.52;102596.31;5043473;28;20120;-82
2021/11/16 05:10:11;;;;;;;0.10;0.10;;;;;;;9.59;59.62;102592.72;5046251;28;20132;-82
2021/11/16 05:12:38;;;;;;;1.08;0.75;;;;;;;9.60;60.12;102598.91;5052147;28;20049;-82
2021/11/16 05:15:10;;;;;;;1.25;1.25;;;;;;;9.65;60.20;102595.44;5054308;28;20044;-82
2021/11/16 05:17:36;;;;;;;0.30;0.30;;;;;;;9.63;60.34;102594.56;5047916;28;20037;-83
2021/11/16 05:20:05;;;;;;;0.17;0.17;;;;;;;9.63;59.73;102594.56;5046955;28;20116;-82
2021/11/16 05:22:31;;;;;;;0.20;0.20;;;;;;;9.62;60.11;102592.78;5042220;28;20040;-82
2021/11/16 05:24:58;;;;;;;1.75;0.68;;;;;;;9.59;60.38;102592.72;5041396;28;20112;-82
2021/11/16 05:27:24;;;;;;;15.27;1.85;;;;;;;9.58;60.54;102585.66;5049284;28;20372;-82
2021/11/16 05:29:50;;;;;;;2.65;1.85;;;;;;;9.55;60.46;102588.28;5050959;28;20041;-82
2021/11/16 05:32:16;;;;;;;2.03;1.77;;;;;;;9.53;60.75;102587.34;5052527;28;20057;-82
2021/11/16 05:34:43;;;;;;;0.40;0.40;;;;;;;9.52;60.49;102585.56;5040901;28;20048;-82
2021/11/16 05:37:09;;;;;;;2.08;1.88;;;;;;;9.52;61.26;102581.19;5042562;28;20040;-82
2021/11/16 05:39:36;;;;;;;5.00;2.95;;;;;;;9.56;61.13;102582.13;5042072;28;20055;-82
2021/11/16 05:42:03;;;;;;;1.65;1.02;;;;;;;9.57;60.29;102581.25;5049105;28;20131;-81
2021/11/16 05:44:32;;;;;;;1.35;1.35;;;;;;;9.58;60.69;102585.66;5048621;28;20135;-82
2021/11/16 05:46:59;;;;;;;0.10;0.10;;;;;;;9.56;60.23;102587.41;5050144;28;20030;-82
2021/11/16 05:49:31;;;;;;;2.00;1.50;;;;;;;9.57;60.04;102583.91;5054158;28;20033;-82
2021/11/16 05:51:58;;;;;;;0.35;0.35;;;;;;;9.58;60.61;102587.41;5047610;28;20507;-82
2021/11/16 05:54:29;;;;;;;1.73;1.65;;;;;;;9.58;60.12;102585.66;5043444;28;20043;-82
2021/11/16 05:56:56;;;;;;;0.10;0.10;;;;;;;9.61;59.98;102582.16;5039446;28;20494;-82
2021/11/16 05:59:24;;;;;;;2.60;2.45;;;;;;;9.60;60.46;102585.69;5038429;28;20061;-82
2021/11/16 06:01:50;;;;;;;0.82;0.82;;;;;;;9.61;60.62;102585.69;5039075;28;20489;-82
2021/11/16 06:04:18;;;;;;;1.00;1.00;;;;;;;9.64;60.14;102590.13;5045882;28;20028;-82
2021/11/16 06:06:44;;;;;;;4.38;3.30;;;;;;;9.63;60.46;102583.97;5053861;28;20384;-82
2021/11/16 06:09:11;;;;;;;0.10;0.10;;;;;;;9.66;60.42;102578.69;5059454;28;20032;-82
2021/11/16 06:11:38;;;;;;;0.10;0.10;;;;;;;9.63;60.17;102576.03;5031098;28;20558;-82
2021/11/16 06:14:04;;;;;;;0.10;0.10;;;;;;;9.65;60.55;102587.50;5029090;28;20044;-83
2021/11/16 06:16:32;;;;;;;0.55;0.55;;;;;;;9.62;59.93;102586.56;5028313;28;20034;-83
2021/11/16 06:19:03;;;;;;;1.65;1.42;;;;;;;9.61;60.17;102583.06;5025168;28;20033;-83
2021/11/16 06:21:31;;;;;;;3.83;3.55;;;;;;;9.59;60.35;102581.25;5032337;28;20033;-83
2021/11/16 06:23:58;;;;;;;0.20;0.20;;;;;;;9.55;59.95;102585.63;5029253;28;20030;-82
2021/11/16 06:26:26;;;;;;;2.25;2.15;;;;;;;9.56;60.52;102579.47;5021321;28;20041;-82
2021/11/16 06:28:54;;;;;;;0.38;0.38;;;;;;;9.54;60.43;102579.47;5022565;28;20025;-82
2021/11/16 06:31:23;;;;;;;1.13;1.05;;;;;;;9.54;60.66;102576.81;5019530;28;20026;-82
2021/11/16 06:33:50;;;;;;;5.82;2.30;;;;;;;9.51;60.18;102573.25;5024417;28;20033;-82
2021/11/16 06:36:16;;;;;;;1.48;1.40;;;;;;;9.50;60.39;102577.63;5021389;28;20041;-82
2021/11/16 06:38:43;;;;;;;0.80;0.80;;;;;;;9.49;60.68;102574.97;5029061;28;20496;-82
2021/11/16 06:41:10;;;;;;;0.85;0.82;;;;;;;9.46;61.31;102570.53;5026819;28;20021;-83
2021/11/16 06:43:36;;;;;;;3.13;2.92;;;;;;;9.46;60.94;102574.91;5029746;28;20128;-82
2021/11/16 06:46:04;;;;;;;0.20;0.20;;;;;;;9.49;61.08;102572.31;5025403;28;20034;-82
2021/11/16 06:48:30;;;;;;;0.10;0.10;;;;;;;9.47;61.24;102568.75;5028267;28;20076;-82
2021/11/16 06:50:58;;;;;;;0.40;0.40;;;;;;;9.48;61.41;102570.53;5022171;28;20456;-82
2021/11/16 06:53:27;;;;;;;0.20;0.20;;;;;;;9.48;61.04;102559.94;5017479;28;20164;-82
2021/11/16 06:55:53;;;;;;;0.20;0.20;;;;;;;9.47;60.73;102566.09;5016040;28;20037;-82
2021/11/16 06:58:20;;;;;;;1.77;1.67;;;;;;;9.46;61.30;102566.97;5029969;28;20025;-82
2021/11/16 07:00:47;;;;;;;1.38;1.38;;;;;;;9.46;60.86;102567.88;5020661;28;20038;-83
2021/11/16 07:03:23;;;;;;;0.40;0.40;;;;;;;9.48;60.54;102566.16;5025935;28;20033;-82
2021/11/16 07:05:52;;;;;;;2.28;1.65;;;;;;;9.43;60.88;102565.19;5018883;28;20025;-82
2021/11/16 07:08:40;;;;;;;3.50;1.75;;;;;;;9.49;61.04;102565.25;5031636;28;20135;-82
2021/11/16 07:11:12;;;;;;;1.77;1.67;;;;;;;9.45;61.47;102570.50;5022334;28;20164;-82
2021/11/16 07:13:55;;;;;;;0.38;0.38;;;;;;;9.49;61.14;102569.66;5027357;28;20022;-82
2021/11/16 07:16:22;;;;;;;2.40;2.30;;;;;;;9.45;61.48;102573.16;5029660;28;20028;-82
2021/11/16 07:18:51;;;;;;;0.10;0.10;;;;;;;9.45;61.08;102573.16;5028829;28;20038;-82
2021/11/16 07:21:21;;;;;;;1.05;1.05;;;;;;;9.45;61.35;102573.16;5024387;28;20499;-82
2021/11/16 07:24:01;;;;;;;0.20;0.20;;;;;;;9.50;61.14;102576.75;5017560;28;20037;-82
2021/11/16 07:26:27;;;;;;;2.60;2.42;;;;;;;9.45;61.42;102573.16;5027652;28;20113;-82
2021/11/16 07:28:53;;;;;;;2.50;2.40;;;;;;;9.46;61.60;102574.91;5021160;28;20025;-82
2021/11/16 07:31:22;;;;;;;5.28;0.73;;;;;;;9.46;61.13;102572.25;5027019;28;20099;-82
2021/11/16 07:33:50;;;;;;;0.47;0.47;;;;;;;9.47;61.38;102581.97;5022166;28;20080;-82
2021/11/16 07:36:17;;;;;;;1.05;1.02;;;;;;;9.47;61.47;102580.25;5021685;28;20037;-82
2021/11/16 07:38:48;;;;;;;1.05;0.73;;;;;;;9.49;61.34;102581.13;5024817;28;20065;-82
2021/11/16 07:41:22;;;;;;;4.25;1.30;;;;;;;9.51;60.95;102575.88;5032679;28;20037;-82
2021/11/16 07:43:49;;;;;;;0.20;0.20;;;;;;;9.46;61.01;102574.91;5025340;28;20038;-81
2021/11/16 07:46:15;;;;;;;0.60;0.60;;;;;;;9.44;60.79;102581.97;5028204;28;20083;-82
2021/11/16 07:48:41;;;;;;;0.77;0.77;;;;;;;9.46;60.95;102572.25;5023028;28;20095;-81
2021/11/16 07:51:11;;;;;;;1.13;1.13;;;;;;;9.48;61.46;102575.81;5019784;28;20072;-82
2021/11/16 07:53:40;;;;;;;1.20;1.20;;;;;;;9.49;61.21;102574.97;5011215;28;20025;-82
2021/11/16 07:59:06;;;;;;;9.13;0.85;;;;;;;9.57;60.39;102572.41;5056828;28;20923;-81
2021/11/16 08:05:06;;;;;;;0.55;0.55;;;;;;;9.50;60.44;102576.75;5070007;28;20171;-82
2021/11/16 08:07:30;;;;;;;1.90;1.77;;;;;;;9.50;60.59;102582.03;5046326;28;20048;-81
2021/11/16 08:10:02;;;;;;;0.50;0.50;;;;;;;9.51;60.42;102581.19;5045879;28;20079;-82
2021/11/16 08:12:35;;;;;;;3.13;2.78;;;;;;;9.52;60.64;102582.94;5047464;28;20084;-82
2021/11/16 08:17:47;;;;;;;1.92;1.85;;;;;;;9.48;60.51;102573.19;5068552;28;20429;-81
2021/11/16 08:20:15;;;;;;;0.70;0.70;;;;;;;9.48;60.44;102575.81;5048756;28;20080;-80
2021/11/16 08:22:43;;;;;;;2.25;2.15;;;;;;;9.47;60.43;102574.94;5047613;28;20029;-81
2021/11/16 08:25:10;;;;;;;0.32;0.32;;;;;;;9.47;60.99;102571.41;5043070;28;20053;-82
2021/11/16 08:27:40;;;;;;;3.33;1.77;;;;;;;9.48;60.75;102579.38;5030439;28;20034;-82
2021/11/16 08:32:51;;;;;;;0.95;0.95;;;;;;;9.43;60.93;102570.47;5070832;28;20417;-81
2021/11/16 08:35:21;;;;;;;1.88;1.77;;;;;;;9.41;60.54;102571.31;5056280;28;20024;-81
2021/11/16 08:37:48;;;;;;;0.75;0.75;;;;;;;9.36;60.51;102569.50;5062258;28;20506;-82
2021/11/16 08:40:18;;;;;;;0.20;0.20;;;;;;;9.36;61.01;102564.22;5062174;28;20049;-82
2021/11/16 08:42:57;;;;;;;1.95;1.85;;;;;;;9.36;60.52;102564.22;5056350;28;20040;-83
2021/11/16 08:45:28;;;;;;;0.10;0.10;;;;;;;9.36;60.67;102558.06;5052873;28;20076;-83
2021/11/16 08:48:05;;;;;;;0.47;0.47;;;;;;;9.35;60.35;102561.56;5061141;28;20652;-83
2021/11/16 08:50:35;;;;;;;0.55;0.55;;;;;;;9.42;60.97;102562.53;5056133;28;20025;-83
2021/11/16 08:53:06;;;;;;;11.55;1.75;;;;;;;9.43;60.52;102559.88;5053701;28;20365;-83
2021/11/16 08:55:33;;;;;;;0.10;0.10;;;;;;;9.44;60.75;102560.78;5063766;28;20021;-83
2021/11/16 08:58:04;;;;;;;1.20;1.17;;;;;;;9.45;60.32;102554.63;5067854;28;20025;-84
2021/11/16 09:00:36;;;;;;;3.00;1.73;;;;;;;9.44;60.56;102550.22;5064592;28;20108;-83
2021/11/16 09:05:50;;;;;;;2.17;2.03;;;;;;;9.41;60.63;102544.88;5053023;28;20453;-83
2021/11/16 09:08:22;;;;;;;0.35;0.35;;;;;;;9.39;60.54;102547.50;5048999;28;20021;-82
2021/11/16 09:10:51;;;;;;;0.30;0.30;;;;;;;9.45;60.60;102546.69;5048868;28;20124;-82
2021/11/16 09:13:20;;;;;;;1.05;1.05;;;;;;;9.45;60.47;102536.13;5048307;28;20380;-82
2021/11/16 09:15:57;;;;;;;0.20;0.20;;;;;;;9.49;60.14;102538.78;5048839;28;20033;-83
2021/11/16 09:18:29;;;;;;;1.50;1.48;;;;;;;9.50;60.15;102534.41;5048999;28;20056;-83
2021/11/16 09:23:43;;;;;;;1.58;1.48;;;;;;;9.51;59.33;102541.47;5061610;28;20426;-82
2021/11/16 09:28:54;;;;;;;0.13;0.13;;;;;;;9.48;59.52;102541.44;5061903;27;20413;-82
2021/11/16 09:31:30;;;;;;;3.00;2.80;;;;;;;9.52;60.13;102549.44;5053958;28;20028;-81
2021/11/16 09:34:01;;;;;;;0.80;0.80;;;;;;;9.51;60.40;102541.47;5051538;28;20626;-81
2021/11/16 09:36:32;;;;;;;2.28;1.75;;;;;;;9.47;59.83;102540.56;5060221;28;20017;-82
2021/11/16 09:39:06;;;;;;;0.68;0.68;;;;;;;9.51;59.71;102552.06;5059088;28;20037;-82
2021/11/16 09:44:23;;;;;;;0.50;0.50;;;;;;;9.55;60.30;102548.56;5068022;28;20430;-82
2021/11/16 09:47:16;;;;;;;1.20;1.20;;;;;;;9.61;59.93;102548.66;5060616;28;20514;-82
2021/11/16 09:49:47;;;;;;;1.13;1.13;;;;;;;9.55;59.95;102543.28;5055599;28;20079;-83
2021/11/16 09:52:17;;;;;;;0.35;0.35;;;;;;;9.53;59.82;102539.72;5052590;28;20518;-83
2021/11/16 09:57:35;;;;;;;2.85;2.65;;;;;;;9.55;59.75;102527.41;5065355;27;20454;-83
2021/11/16 10:00:08;;;;;;;1.90;1.65;;;;;;;9.51;59.19;102530.91;5066636;28;20028;-83
2021/11/16 10:02:36;;;;;;;0.40;0.40;;;;;;;9.53;60.28;102529.13;5061791;28;20057;-83
2021/11/16 10:05:15;;;;;;;1.58;1.55;;;;;;;9.46;58.95;102527.28;5062630;28;20112;-83
2021/11/16 10:07:42;;;;;;;0.40;0.40;;;;;;;9.41;58.80;102534.28;5064698;28;20451;-83
2021/11/16 10:10:08;;;;;;;2.65;2.05;;;;;;;9.42;59.24;102536.06;5061821;28;20052;-82
2021/11/16 10:12:41;;;;;;;4.15;1.23;;;;;;;9.45;59.56;102530.81;5063566;28;20039;-82
2021/11/16 10:15:09;;;;;;;0.17;0.17;;;;;;;9.42;59.41;102522.84;5067355;28;20036;-82
2021/11/16 10:17:36;;;;;;;0.20;0.20;;;;;;;9.43;59.30;102521.97;5064154;28;20025;-82
2021/11/16 10:20:05;;;;;;;0.20;0.20;;;;;;;9.46;59.66;102525.53;5060596;28;20060;-82
2021/11/16 10:22:31;;;;;;;2.08;1.92;;;;;;;9.48;60.09;102520.25;5052327;28;20051;-83
2021/11/16 10:25:17;;;;;;;0.40;0.40;;;;;;;9.57;59.17;102515.09;5057254;28;20514;-82
2021/11/16 10:27:45;;;;;;;0.90;0.90;;;;;;;9.51;59.53;102510.59;5063114;28;20039;-82
2021/11/16 10:33:16;;;;;;;0.35;0.35;;;;;;;9.56;58.84;102518.59;5068504;27;20398;-82
2021/11/16 10:36:08;;;;;;;0.43;0.43;;;;;;;9.55;59.82;102508.88;5043127;28;20408;-82
2021/11/16 10:38:39;;;;;;;0.87;0.87;;;;;;;9.58;60.06;102511.56;5044229;28;20025;-83
2021/11/16 10:41:11;;;;;;;1.55;0.95;;;;;;;9.61;60.08;102506.31;5046268;28;20290;-83
2021/11/16 10:43:42;;;;;;;1.02;1.02;;;;;;;9.60;59.71;102509.81;5046896;28;20091;-82
2021/11/16 10:46:09;;;;;;;0.95;0.95;;;;;;;9.58;59.23;102514.19;5048881;28;20064;-82
2021/11/16 10:48:38;;;;;;;0.38;0.38;;;;;;;9.52;59.00;102507.09;5046925;28;20041;-83
2021/11/16 10:51:07;;;;;;;0.10;0.10;;;;;;;9.54;59.06;102504.47;5050842;28;20421;-83
2021/11/16 10:53:34;;;;;;;5.05;1.85;;;;;;;9.57;58.86;102506.25;5053412;28;20160;-83
2021/11/16 10:56:03;;;;;;;0.22;0.22;;;;;;;9.59;59.25;102494.81;5064673;28;20032;-82
2021/11/16 10:58:39;;;;;;;0.47;0.47;;;;;;;9.67;59.62;102493.13;5056878;28;20472;-82
2021/11/16 11:01:11;;;;;;;0.45;0.45;;;;;;;9.70;59.24;102477.28;5056712;28;20379;-83
2021/11/16 11:06:20;;;;;;;2.08;1.65;;;;;;;9.55;58.85;102479.78;5060218;27;20473;-83
2021/11/16 11:08:55;;;;;;;2.55;1.95;;;;;;;9.66;59.21;102471.97;5048056;28;20026;-85
2021/11/16 11:11:28;;;;;;;0.57;0.57;;;;;;;9.66;59.38;102467.53;5045700;28;20040;-84
2021/11/16 11:19:25;;;;;;;2.63;2.42;;;;;;;9.68;59.68;102454.31;5075955;27;20416;-83
2021/11/16 11:21:58;;;;;;;10.05;1.45;;;;;;;9.72;59.66;102453.50;5065015;28;20032;-83
2021/11/16 11:24:36;;;;;;;0.30;0.30;;;;;;;9.73;59.66;102452.59;5065194;28;20037;-84
2021/11/16 11:30:05;;;;;;;0.10;0.10;;;;;;;9.81;59.17;102450.91;5100476;27;20386;-81
2021/11/16 11:32:37;;;;;;;0.47;0.47;;;;;;;9.89;59.00;102437.75;5109216;28;20482;-83
2021/11/16 11:35:13;;;;;;;0.25;0.25;;;;;;;9.95;59.12;102429.84;5109325;28;20098;-83
2021/11/16 11:37:45;;;;;;;1.92;1.70;;;;;;;9.98;59.22;102432.53;5109438;28;20020;-83
2021/11/16 11:40:19;;;;;;;0.32;0.32;;;;;;;10.03;59.53;102430.81;5109189;28;20052;-83
2021/11/16 11:45:30;;;;;;;0.20;0.20;;;;;;;9.98;58.81;102435.19;5056257;27;20411;-83
2021/11/16 11:53:24;;;;;;;0.10;0.10;;;;;;;10.01;58.91;102413.13;5069509;27;20398;-83
2021/11/16 11:56:01;;;;;;;1.75;1.63;;;;;;;9.99;59.24;102422.81;5050090;28;20068;-83
2021/11/16 11:58:32;;;;;;;2.05;1.23;;;;;;;9.96;59.01;102415.75;5048286;28;20071;-83
2021/11/16 12:01:06;;;;;;;0.52;0.52;;;;;;;9.94;59.62;102419.25;5047614;28;20075;-83
2021/11/16 12:03:33;;;;;;;0.38;0.38;;;;;;;9.95;59.34;102415.72;5048300;28;20044;-83
2021/11/16 12:06:00;;;;;;;0.10;0.10;;;;;;;9.93;58.81;102406.88;5048008;28;20090;-83
2021/11/16 12:08:26;;;;;;;0.65;0.65;;;;;;;9.95;59.37;102407.78;5048413;28;20044;-83
2021/11/16 12:10:53;;;;;;;6.90;2.33;;;;;;;9.97;59.48;102398.97;5048530;28;20057;-83
2021/11/16 12:13:22;;;;;;;0.10;0.10;;;;;;;9.96;59.11;102397.22;5048316;28;20528;-82
2021/11/16 12:15:55;;;;;;;1.65;1.27;;;;;;;9.98;59.29;102402.50;5047856;28;20189;-83
2021/11/16 12:18:36;;;;;;;1.13;1.02;;;;;;;10.03;58.72;102399.03;5047770;28;20017;-83
2021/11/16 12:21:02;;;;;;;2.53;0.75;;;;;;;9.97;59.45;102404.28;5048430;28;20052;-83
2021/11/16 12:23:51;;;;;;;4.28;3.92;;;;;;;10.11;59.50;102392.91;5049155;28;20033;-83
2021/11/16 12:26:17;;;;;;;2.22;0.82;;;;;;;10.06;58.85;102389.34;5047706;28;20044;-83
2021/11/16 12:28:44;;;;;;;2.65;2.47;;;;;;;10.07;59.22;102385.78;5048579;28;20034;-83
2021/11/16 12:31:29;;;;;;;0.25;0.25;;;;;;;10.19;59.35;102385.88;5048259;28;20400;-84
2021/11/16 12:33:57;;;;;;;2.78;0.98;;;;;;;10.14;59.49;102379.66;5048537;28;20059;-84
2021/11/16 12:36:46;;;;;;;3.40;1.45;;;;;;;10.26;59.45;102377.09;5049097;28;20056;-83
2021/11/16 12:39:16;;;;;;;0.30;0.30;;;;;;;10.20;59.07;102379.72;5048438;28;20090;-84